PWSweather.com
Personal Weather Stations
Station Observations
KJ4AJP
Beautiful Downtown Gardner, Martin, TN 38237

Beautiful Downtown GardnerMartin, TN 38237

Lat: 36.358, Lon: -88.8994

Elevation: 384.3

Station Type: TP1080WC

http://weather.mambm.com/

High Low Average
Temperature 54.5°F12.5°C 43.5°F6.4°C 47.9°F8.8°C
Dew Point 49.5°F9.7°C 42.7°F5.9°C 45.7°F7.6°C
Winds 5.4 mph 8.7 kmh Calm Calm 2.0 mph ENE3.2 kmh ENE
Wind Gusts 14.5 mph23.3 kmh -- 6.0 mph9.7 kmh
Humidity 99% 83% 92%
Pressure 30.02 in1016.6 mb 29.76 in1007.8 mb -
Precipitation 0.01 in0.3 mm - -
Hour Temp Dew Point Humidity Winds Wind Gusts Pressure Precip Precip Rate Daily Precip Total
12:00 AM 46.8°F8.2°C 45.1°F7.3°C 94% 1.6 mph N2.6 kmh N 11.4 mph18.3 kmh 29.98 in1015.2 mb 0.00 in0.0 mm 0.00 in0.0 mm 0.00 in0.0 mm
12:15 AM 46.8°F8.2°C 44.8°F7.1°C 93% 4.5 mph N7.2 kmh N 9.8 mph15.8 kmh 29.98 in1015.2 mb 0.00 in0.0 mm 0.00 in0.0 mm 0.00 in0.0 mm
12:30 AM 46.8°F8.2°C 44.8°F7.1°C 93% 3.8 mph N6.1 kmh N 9.2 mph14.8 kmh 29.98 in1015.2 mb 0.00 in0.0 mm 0.00 in0.0 mm 0.00 in0.0 mm
12:45 AM 46.6°F8.1°C 44.7°F7.1°C 93% 2.2 mph NNE3.5 kmh NNE 11.4 mph18.3 kmh 29.98 in1015.2 mb 0.00 in0.0 mm 0.00 in0.0 mm 0.00 in0.0 mm
01:00 AM 46.4°F8.0°C 44.5°F6.9°C 93% 5.4 mph N8.7 kmh N 14.5 mph23.3 kmh 29.98 in1015.2 mb 0.00 in0.0 mm 0.00 in0.0 mm 0.00 in0.0 mm
01:15 AM 46.4°F8.0°C 44.5°F6.9°C 93% 1.6 mph NE2.6 kmh NE 7.6 mph12.2 kmh 29.98 in1015.2 mb 0.00 in0.0 mm 0.00 in0.0 mm 0.00 in0.0 mm
01:30 AM 46.4°F8.0°C 44.5°F6.9°C 93% 1.6 mph N2.6 kmh N 10.7 mph17.2 kmh 29.98 in1015.2 mb 0.00 in0.0 mm 0.00 in0.0 mm 0.00 in0.0 mm
01:45 AM 46.4°F8.0°C 44.5°F6.9°C 93% 4.5 mph NE7.2 kmh NE 11.4 mph18.3 kmh 29.98 in1015.2 mb 0.00 in0.0 mm 0.00 in0.0 mm 0.00 in0.0 mm
02:00 AM 46.4°F8.0°C 44.5°F6.9°C 93% 2.2 mph NE3.5 kmh NE 9.2 mph14.8 kmh 29.98 in1015.2 mb 0.00 in0.0 mm 0.00 in0.0 mm 0.00 in0.0 mm
02:15 AM 46.2°F7.9°C 44.3°F6.8°C 93% 3.1 mph NE5.0 kmh NE 6.9 mph11.1 kmh 29.98 in1015.2 mb 0.00 in0.0 mm 0.00 in0.0 mm 0.00 in0.0 mm
02:30 AM 46.0°F7.8°C 44.1°F6.7°C 93% 3.8 mph N6.1 kmh N 10.7 mph17.2 kmh 29.98 in1015.2 mb 0.00 in0.0 mm 0.00 in0.0 mm 0.00 in0.0 mm
02:45 AM 45.9°F7.7°C 44.2°F6.8°C 94% 2.2 mph N3.5 kmh N 8.3 mph13.4 kmh 29.98 in1015.2 mb 0.00 in0.0 mm 0.00 in0.0 mm 0.00 in0.0 mm
03:00 AM 45.9°F7.7°C 44.2°F6.8°C 94% 3.1 mph N5.0 kmh N 6.9 mph11.1 kmh 29.98 in1015.2 mb 0.00 in0.0 mm 0.00 in0.0 mm 0.00 in0.0 mm
03:15 AM 45.7°F7.6°C 44.1°F6.7°C 94% 4.5 mph N7.2 kmh N 11.4 mph18.3 kmh 29.99 in1015.6 mb 0.00 in0.0 mm 0.00 in0.0 mm 0.00 in0.0 mm
03:30 AM 45.5°F7.5°C 43.9°F6.6°C 94% 2.2 mph N3.5 kmh N 6.0 mph9.7 kmh 29.99 in1015.6 mb 0.00 in0.0 mm 0.00 in0.0 mm 0.00 in0.0 mm
03:45 AM 45.3°F7.4°C 43.7°F6.5°C 94% 2.2 mph NE3.5 kmh NE 8.3 mph13.4 kmh 29.98 in1015.2 mb 0.00 in0.0 mm 0.00 in0.0 mm 0.00 in0.0 mm
04:00 AM 45.3°F7.4°C 44.0°F6.7°C 95% 0.7 mph N1.1 kmh N 6.0 mph9.7 kmh 29.98 in1015.2 mb 0.00 in0.0 mm 0.00 in0.0 mm 0.00 in0.0 mm
04:15 AM 45.1°F7.3°C 43.8°F6.6°C 95% 0.7 mph N1.1 kmh N 6.9 mph11.1 kmh 30.00 in1015.9 mb 0.00 in0.0 mm 0.00 in0.0 mm 0.00 in0.0 mm
04:30 AM 45.0°F7.2°C 43.6°F6.4°C 95% 2.2 mph N3.5 kmh N 6.9 mph11.1 kmh 29.98 in1015.2 mb 0.00 in0.0 mm 0.00 in0.0 mm 0.00 in0.0 mm
04:45 AM 44.8°F7.1°C 43.4°F6.3°C 95% 3.8 mph N6.1 kmh N 7.6 mph12.2 kmh 29.98 in1015.2 mb 0.00 in0.0 mm 0.00 in0.0 mm 0.00 in0.0 mm
05:00 AM 44.8°F7.1°C 43.4°F6.3°C 95% 0.7 mph NNE1.1 kmh NNE 6.9 mph11.1 kmh 29.98 in1015.2 mb 0.00 in0.0 mm 0.00 in0.0 mm 0.00 in0.0 mm
05:15 AM 44.6°F7.0°C 43.3°F6.3°C 95% 1.6 mph NE2.6 kmh NE 7.6 mph12.2 kmh 30.00 in1015.9 mb 0.00 in0.0 mm 0.00 in0.0 mm 0.00 in0.0 mm
05:30 AM 44.2°F6.8°C 43.2°F6.2°C 96% 4.5 mph N7.2 kmh N 7.6 mph12.2 kmh 30.00 in1015.9 mb 0.00 in0.0 mm 0.00 in0.0 mm 0.00 in0.0 mm
05:45 AM 44.1°F6.7°C 43.0°F6.1°C 96% 0.7 mph NNE1.1 kmh NNE 6.0 mph9.7 kmh 30.00 in1015.9 mb 0.00 in0.0 mm 0.00 in0.0 mm 0.00 in0.0 mm
06:00 AM 44.1°F6.7°C 43.0°F6.1°C 96% 1.6 mph N2.6 kmh N 4.5 mph7.2 kmh 30.00 in1015.9 mb 0.00 in0.0 mm 0.00 in0.0 mm 0.00 in0.0 mm
06:15 AM 44.1°F6.7°C 43.0°F6.1°C 96% 0.7 mph NNE1.1 kmh NNE 6.0 mph9.7 kmh 30.00 in1015.9 mb 0.00 in0.0 mm 0.00 in0.0 mm 0.00 in0.0 mm
06:30 AM 44.1°F6.7°C 43.0°F6.1°C 96% 0.7 mph NE1.1 kmh NE 4.5 mph7.2 kmh 30.01 in1016.3 mb 0.00 in0.0 mm 0.00 in0.0 mm 0.00 in0.0 mm
06:45 AM 44.1°F6.7°C 43.3°F6.3°C 97% 2.2 mph NE3.5 kmh NE 7.6 mph12.2 kmh 30.00 in1015.9 mb 0.00 in0.0 mm 0.00 in0.0 mm 0.00 in0.0 mm
07:00 AM 44.1°F6.7°C 43.3°F6.3°C 97% 3.1 mph NE5.0 kmh NE 9.2 mph14.8 kmh 30.01 in1016.3 mb 0.00 in0.0 mm 0.00 in0.0 mm 0.00 in0.0 mm
07:15 AM 43.9°F6.6°C 43.1°F6.2°C 97% 1.6 mph NE2.6 kmh NE 6.0 mph9.7 kmh 30.01 in1016.3 mb 0.00 in0.0 mm 0.00 in0.0 mm 0.00 in0.0 mm
07:30 AM 43.9°F6.6°C 43.1°F6.2°C 97% 1.6 mph NNE2.6 kmh NNE 4.5 mph7.2 kmh 29.99 in1015.6 mb 0.00 in0.0 mm 0.00 in0.0 mm 0.00 in0.0 mm
07:45 AM 43.5°F6.4°C 42.7°F5.9°C 97% 3.1 mph NE5.0 kmh NE 9.8 mph15.8 kmh 29.99 in1015.6 mb 0.00 in0.0 mm 0.00 in0.0 mm 0.00 in0.0 mm
08:00 AM 43.7°F6.5°C 42.9°F6.1°C 97% 2.2 mph NNE3.5 kmh NNE 8.3 mph13.4 kmh 30.00 in1015.9 mb 0.00 in0.0 mm 0.00 in0.0 mm 0.00 in0.0 mm
08:15 AM 43.7°F6.5°C 42.9°F6.1°C 97% 4.5 mph N7.2 kmh N 6.9 mph11.1 kmh 30.02 in1016.6 mb 0.00 in0.0 mm 0.00 in0.0 mm 0.00 in0.0 mm
08:30 AM 43.7°F6.5°C 42.9°F6.1°C 97% 2.2 mph NNE3.5 kmh NNE 5.4 mph8.7 kmh 30.01 in1016.3 mb 0.00 in0.0 mm 0.00 in0.0 mm 0.00 in0.0 mm
08:45 AM 43.7°F6.5°C 42.9°F6.1°C 97% 1.6 mph NNE2.6 kmh NNE 6.9 mph11.1 kmh 30.02 in1016.6 mb 0.00 in0.0 mm 0.00 in0.0 mm 0.00 in0.0 mm
09:00 AM 43.9°F6.6°C 42.8°F6.0°C 96% 1.6 mph NNE2.6 kmh NNE 5.4 mph8.7 kmh 30.01 in1016.3 mb 0.00 in0.0 mm 0.00 in0.0 mm 0.00 in0.0 mm
09:15 AM 44.1°F6.7°C 43.0°F6.1°C 96% 1.6 mph NE2.6 kmh NE 4.5 mph7.2 kmh 30.02 in1016.6 mb 0.00 in0.0 mm 0.00 in0.0 mm 0.00 in0.0 mm
09:30 AM 44.4°F6.9°C 43.4°F6.3°C 96% 1.6 mph NE2.6 kmh NE 5.4 mph8.7 kmh 30.02 in1016.6 mb 0.00 in0.0 mm 0.00 in0.0 mm 0.00 in0.0 mm
09:45 AM 44.8°F7.1°C 43.7°F6.5°C 96% 1.6 mph E2.6 kmh E 6.0 mph9.7 kmh 30.02 in1016.6 mb 0.00 in0.0 mm 0.00 in0.0 mm 0.00 in0.0 mm
10:00 AM 45.1°F7.3°C 43.8°F6.6°C 95% Calm Calm 3.8 mph6.1 kmh 30.02 in1016.6 mb 0.00 in0.0 mm 0.00 in0.0 mm 0.00 in0.0 mm
10:15 AM 45.7°F7.6°C 44.1°F6.7°C 94% Calm Calm 4.5 mph7.2 kmh 30.01 in1016.3 mb 0.00 in0.0 mm 0.00 in0.0 mm 0.00 in0.0 mm
10:30 AM 46.0°F7.8°C 44.1°F6.7°C 93% 0.7 mph E1.1 kmh E 4.5 mph7.2 kmh 30.01 in1016.3 mb 0.00 in0.0 mm 0.00 in0.0 mm 0.00 in0.0 mm
10:45 AM 46.8°F8.2°C 44.8°F7.1°C 93% 2.2 mph SE3.5 kmh SE 6.0 mph9.7 kmh 29.99 in1015.6 mb 0.00 in0.0 mm 0.00 in0.0 mm 0.00 in0.0 mm
11:00 AM 47.1°F8.4°C 44.9°F7.2°C 92% 1.6 mph ESE2.6 kmh ESE 6.9 mph11.1 kmh 30.00 in1015.9 mb 0.00 in0.0 mm 0.00 in0.0 mm 0.00 in0.0 mm
11:15 AM 47.5°F8.6°C 45.0°F7.2°C 91% 2.2 mph E3.5 kmh E 4.5 mph7.2 kmh 30.00 in1015.9 mb 0.00 in0.0 mm 0.00 in0.0 mm 0.00 in0.0 mm
11:30 AM 48.0°F8.9°C 45.5°F7.5°C 91% 1.6 mph NE2.6 kmh NE 3.8 mph6.1 kmh 30.00 in1015.9 mb 0.00 in0.0 mm 0.00 in0.0 mm 0.00 in0.0 mm
11:45 AM 48.4°F9.1°C 45.6°F7.6°C 90% 0.7 mph NE1.1 kmh NE 3.8 mph6.1 kmh 29.99 in1015.6 mb 0.00 in0.0 mm 0.00 in0.0 mm 0.00 in0.0 mm
12:00 PM 48.9°F9.4°C 46.1°F7.8°C 90% 2.2 mph ENE3.5 kmh ENE 4.5 mph7.2 kmh 29.99 in1015.6 mb 0.00 in0.0 mm 0.00 in0.0 mm 0.00 in0.0 mm
12:15 PM 49.5°F9.7°C 46.4°F8.0°C 89% 3.1 mph E5.0 kmh E 5.4 mph8.7 kmh 29.97 in1014.9 mb 0.00 in0.0 mm 0.00 in0.0 mm 0.00 in0.0 mm
12:30 PM 50.0°F10.0°C 46.6°F8.1°C 88% 2.2 mph NE3.5 kmh NE 5.4 mph8.7 kmh 29.95 in1014.2 mb 0.00 in0.0 mm 0.00 in0.0 mm 0.00 in0.0 mm
12:45 PM 50.9°F10.5°C 47.5°F8.6°C 88% 3.8 mph NE6.1 kmh NE 6.0 mph9.7 kmh 29.95 in1014.2 mb 0.00 in0.0 mm 0.00 in0.0 mm 0.00 in0.0 mm
01:00 PM 51.1°F10.6°C 47.0°F8.3°C 86% 1.6 mph NE2.6 kmh NE 9.2 mph14.8 kmh 29.94 in1013.9 mb 0.00 in0.0 mm 0.00 in0.0 mm 0.00 in0.0 mm
01:15 PM 51.1°F10.6°C 47.4°F8.6°C 87% 3.1 mph N5.0 kmh N 8.3 mph13.4 kmh 29.93 in1013.5 mb 0.00 in0.0 mm 0.00 in0.0 mm 0.00 in0.0 mm
01:30 PM 52.2°F11.2°C 48.1°F8.9°C 86% 2.2 mph NE3.5 kmh NE 5.4 mph8.7 kmh 29.92 in1013.2 mb 0.00 in0.0 mm 0.00 in0.0 mm 0.00 in0.0 mm
01:45 PM 53.1°F11.7°C 49.0°F9.4°C 86% 3.1 mph N5.0 kmh N 8.3 mph13.4 kmh 29.92 in1013.2 mb 0.00 in0.0 mm 0.00 in0.0 mm 0.00 in0.0 mm
02:00 PM 53.4°F11.9°C 48.7°F9.3°C 84% 3.8 mph N6.1 kmh N 7.6 mph12.2 kmh 29.92 in1013.2 mb 0.00 in0.0 mm 0.00 in0.0 mm 0.00 in0.0 mm
02:15 PM 53.6°F12.0°C 48.9°F9.4°C 84% 3.8 mph N6.1 kmh N 7.6 mph12.2 kmh 29.91 in1012.9 mb 0.00 in0.0 mm 0.00 in0.0 mm 0.00 in0.0 mm
02:30 PM 53.2°F11.8°C 48.2°F9.0°C 83% 0.7 mph NNE1.1 kmh NNE 7.6 mph12.2 kmh 29.91 in1012.9 mb 0.00 in0.0 mm 0.00 in0.0 mm 0.00 in0.0 mm
02:45 PM 53.6°F12.0°C 48.6°F9.2°C 83% 2.2 mph N3.5 kmh N 9.2 mph14.8 kmh 29.89 in1012.2 mb 0.00 in0.0 mm 0.00 in0.0 mm 0.00 in0.0 mm
03:00 PM 53.8°F12.1°C 48.7°F9.3°C 83% 3.8 mph NE6.1 kmh NE 10.7 mph17.2 kmh 29.89 in1012.2 mb 0.00 in0.0 mm 0.00 in0.0 mm 0.00 in0.0 mm
03:15 PM 54.0°F12.2°C 48.9°F9.4°C 83% 4.5 mph NNE7.2 kmh NNE 8.3 mph13.4 kmh 29.89 in1012.2 mb 0.00 in0.0 mm 0.00 in0.0 mm 0.00 in0.0 mm
03:30 PM 54.3°F12.4°C 49.3°F9.6°C 83% 2.2 mph NE3.5 kmh NE 8.3 mph13.4 kmh 29.88 in1011.9 mb 0.00 in0.0 mm 0.00 in0.0 mm 0.00 in0.0 mm
03:45 PM 54.5°F12.5°C 49.5°F9.7°C 83% 2.2 mph NE3.5 kmh NE 5.4 mph8.7 kmh 29.87 in1011.5 mb 0.00 in0.0 mm 0.00 in0.0 mm 0.00 in0.0 mm
04:00 PM 54.1°F12.3°C 49.1°F9.5°C 83% 2.2 mph NE3.5 kmh NE 7.6 mph12.2 kmh 29.86 in1011.2 mb 0.00 in0.0 mm 0.00 in0.0 mm 0.00 in0.0 mm
04:15 PM 53.6°F12.0°C 48.9°F9.4°C 84% 2.2 mph NNE3.5 kmh NNE 7.6 mph12.2 kmh 29.86 in1011.2 mb 0.00 in0.0 mm 0.00 in0.0 mm 0.00 in0.0 mm
04:30 PM 53.4°F11.9°C 48.7°F9.3°C 84% 2.2 mph N3.5 kmh N 9.2 mph14.8 kmh 29.87 in1011.5 mb 0.00 in0.0 mm 0.00 in0.0 mm 0.00 in0.0 mm
04:45 PM 52.7°F11.5°C 48.3°F9.1°C 85% 3.8 mph N6.1 kmh N 8.3 mph13.4 kmh 29.88 in1011.9 mb 0.00 in0.0 mm 0.00 in0.0 mm 0.00 in0.0 mm
05:00 PM 52.2°F11.2°C 48.1°F8.9°C 86% 3.8 mph N6.1 kmh N 6.9 mph11.1 kmh 29.87 in1011.5 mb 0.00 in0.0 mm 0.00 in0.0 mm 0.00 in0.0 mm
05:15 PM 51.8°F11.0°C 47.8°F8.8°C 86% 2.2 mph N3.5 kmh N 6.0 mph9.7 kmh 29.87 in1011.5 mb 0.00 in0.0 mm 0.00 in0.0 mm 0.00 in0.0 mm
05:30 PM 51.6°F10.9°C 47.9°F8.8°C 87% 1.6 mph N2.6 kmh N 5.4 mph8.7 kmh 29.87 in1011.5 mb 0.00 in0.0 mm 0.00 in0.0 mm 0.00 in0.0 mm
05:45 PM 51.1°F10.6°C 47.7°F8.7°C 88% 0.7 mph N1.1 kmh N 7.6 mph12.2 kmh 29.87 in1011.5 mb 0.00 in0.0 mm 0.00 in0.0 mm 0.00 in0.0 mm
06:00 PM 50.7°F10.4°C 47.3°F8.5°C 88% 1.6 mph N2.6 kmh N 5.4 mph8.7 kmh 29.86 in1011.2 mb 0.00 in0.0 mm 0.00 in0.0 mm 0.00 in0.0 mm
06:15 PM 50.4°F10.2°C 47.2°F8.4°C 89% 0.7 mph N1.1 kmh N 4.5 mph7.2 kmh 29.86 in1011.2 mb 0.00 in0.0 mm 0.00 in0.0 mm 0.00 in0.0 mm
06:30 PM 50.0°F10.0°C 47.2°F8.4°C 90% 1.6 mph NNE2.6 kmh NNE 4.5 mph7.2 kmh 29.86 in1011.2 mb 0.00 in0.0 mm 0.00 in0.0 mm 0.00 in0.0 mm
06:45 PM 49.8°F9.9°C 47.0°F8.3°C 90% 0.7 mph N1.1 kmh N 4.5 mph7.2 kmh 29.84 in1010.5 mb 0.00 in0.0 mm 0.00 in0.0 mm 0.00 in0.0 mm
07:00 PM 49.5°F9.7°C 46.9°F8.3°C 91% 1.6 mph NE2.6 kmh NE 3.8 mph6.1 kmh 29.83 in1010.2 mb 0.00 in0.0 mm 0.00 in0.0 mm 0.00 in0.0 mm
07:15 PM 49.3°F9.6°C 46.8°F8.2°C 91% 1.6 mph NNE2.6 kmh NNE 3.8 mph6.1 kmh 29.83 in1010.2 mb 0.00 in0.0 mm 0.00 in0.0 mm 0.00 in0.0 mm
07:30 PM 49.1°F9.5°C 46.9°F8.3°C 92% 3.1 mph NNE5.0 kmh NNE 5.4 mph8.7 kmh 29.82 in1009.8 mb 0.00 in0.0 mm 0.00 in0.0 mm 0.00 in0.0 mm
07:45 PM 49.1°F9.5°C 46.9°F8.3°C 92% 1.6 mph N2.6 kmh N 4.5 mph7.2 kmh 29.83 in1010.2 mb 0.00 in0.0 mm 0.00 in0.0 mm 0.00 in0.0 mm
08:00 PM 48.9°F9.4°C 47.0°F8.3°C 93% Calm Calm 3.8 mph6.1 kmh 29.85 in1010.8 mb 0.00 in0.0 mm 0.00 in0.0 mm 0.00 in0.0 mm
08:15 PM 48.7°F9.3°C 46.8°F8.2°C 93% Calm Calm 2.2 mph3.5 kmh 29.86 in1011.2 mb 0.00 in0.0 mm 0.00 in0.0 mm 0.00 in0.0 mm
08:30 PM 48.6°F9.2°C 46.9°F8.3°C 94% 0.7 mph WNW1.1 kmh WNW 1.6 mph2.6 kmh 29.86 in1011.2 mb 0.00 in0.0 mm 0.00 in0.0 mm 0.00 in0.0 mm
08:45 PM 48.4°F9.1°C 47.0°F8.3°C 95% Calm Calm 1.6 mph2.6 kmh 29.87 in1011.5 mb 0.00 in0.0 mm 0.00 in0.0 mm 0.00 in0.0 mm
09:00 PM 48.4°F9.1°C 47.0°F8.3°C 95% Calm Calm 1.6 mph2.6 kmh 29.86 in1011.2 mb 0.00 in0.0 mm 0.00 in0.0 mm 0.00 in0.0 mm
09:15 PM 48.2°F9.0°C 46.8°F8.2°C 95% Calm Calm 1.6 mph2.6 kmh 29.86 in1011.2 mb 0.00 in0.0 mm 0.00 in0.0 mm 0.00 in0.0 mm
09:30 PM 48.0°F8.9°C 46.7°F8.2°C 95% Calm Calm -- 29.84 in1010.5 mb 0.00 in0.0 mm 0.00 in0.0 mm 0.00 in0.0 mm
09:45 PM 47.8°F8.8°C 46.8°F8.2°C 96% 0.7 mph ENE1.1 kmh ENE 1.6 mph2.6 kmh 29.83 in1010.2 mb 0.00 in0.0 mm 0.00 in0.0 mm 0.00 in0.0 mm
10:00 PM 47.8°F8.8°C 46.8°F8.2°C 96% 1.6 mph NE2.6 kmh NE 3.8 mph6.1 kmh 29.81 in1009.5 mb 0.00 in0.0 mm 0.00 in0.0 mm 0.00 in0.0 mm
10:15 PM 48.0°F8.9°C 47.2°F8.4°C 97% 0.7 mph NE1.1 kmh NE 4.5 mph7.2 kmh 29.81 in1009.5 mb 0.00 in0.0 mm 0.00 in0.0 mm 0.00 in0.0 mm
10:30 PM 47.8°F8.8°C 47.0°F8.3°C 97% 0.7 mph NE1.1 kmh NE 3.8 mph6.1 kmh 29.80 in1009.1 mb 0.01 in0.3 mm 0.04 in1.0 mm 0.01 in0.3 mm
10:45 PM 47.7°F8.7°C 47.1°F8.4°C 98% Calm Calm 3.8 mph6.1 kmh 29.79 in1008.8 mb 0.01 in0.3 mm 0.00 in0.0 mm 0.01 in0.3 mm
11:00 PM 47.5°F8.6°C 47.2°F8.4°C 99% 2.2 mph NE3.5 kmh NE 5.4 mph8.7 kmh 29.78 in1008.5 mb 0.01 in0.3 mm 0.00 in0.0 mm 0.01 in0.3 mm
11:15 PM 47.3°F8.5°C 47.0°F8.3°C 99% 1.6 mph NE2.6 kmh NE 6.0 mph9.7 kmh 29.76 in1007.8 mb 0.01 in0.3 mm 0.00 in0.0 mm 0.01 in0.3 mm
11:30 PM 47.3°F8.5°C 47.0°F8.3°C 99% 1.6 mph ENE2.6 kmh ENE 5.4 mph8.7 kmh 29.77 in1008.1 mb 0.00 in0.0 mm 0.00 in0.0 mm 0.01 in0.3 mm